<?xml version="1.0" encoding="UTF-8" standalone="no" ?>
<gpx xmlns="http://www.topografix.com/GPX/1/1" xmlns:xsi="http://www.w3.org/2001/XMLSchema-instance" xsi:schemaLocation="http://www.topografix.com/GPX/1/1 http://www.topografix.com/GPX/1/1/gpx.xsd" version="1.1" creator="VisuGPX - https://www.visugpx.com">
  <metadata>
    <name>Hameau de Brangoly, chapelle de Belloc.</name>
    <desc><![CDATA[Au départ du Hameau de Brangoly.]]></desc>
  </metadata>
  <trk>
    <name><![CDATA[22-JUIL-15 13:16:14]]></name>
    <trkseg>
      <trkpt lat="42.48108" lon="1.90791">
        <ele>1468.07</ele>
        <time>2015-07-22T09:10:38Z</time>
      </trkpt>
      <trkpt lat="42.48108" lon="1.90791">
        <ele>1468.07</ele>
        <time>2015-07-22T09:10:49Z</time>
      </trkpt>
      <trkpt lat="42.48109" lon="1.90791">
        <ele>1468.55</ele>
        <time>2015-07-22T09:11:15Z</time>
      </trkpt>
      <trkpt lat="42.48109" lon="1.9079">
        <ele>1468.07</ele>
        <time>2015-07-22T09:11:32Z</time>
      </trkpt>
      <trkpt lat="42.4811" lon="1.90791">
        <ele>1468.07</ele>
        <time>2015-07-22T09:11:48Z</time>
      </trkpt>
      <trkpt lat="42.48115" lon="1.90798">
        <ele>1468.55</ele>
        <time>2015-07-22T09:12:00Z</time>
      </trkpt>
      <trkpt lat="42.48113" lon="1.90795">
        <ele>1468.07</ele>
        <time>2015-07-22T09:12:24Z</time>
      </trkpt>
      <trkpt lat="42.48115" lon="1.90782">
        <ele>1467.59</ele>
        <time>2015-07-22T09:12:41Z</time>
      </trkpt>
      <trkpt lat="42.48117" lon="1.90781">
        <ele>1467.59</ele>
        <time>2015-07-22T09:13:02Z</time>
      </trkpt>
      <trkpt lat="42.48116" lon="1.90787">
        <ele>1467.59</ele>
        <time>2015-07-22T09:13:16Z</time>
      </trkpt>
      <trkpt lat="42.48111" lon="1.90789">
        <ele>1467.59</ele>
        <time>2015-07-22T09:13:36Z</time>
      </trkpt>
      <trkpt lat="42.48109" lon="1.9079">
        <ele>1467.59</ele>
        <time>2015-07-22T09:13:59Z</time>
      </trkpt>
      <trkpt lat="42.48109" lon="1.90793">
        <ele>1468.07</ele>
        <time>2015-07-22T09:14:02Z</time>
      </trkpt>
      <trkpt lat="42.4811" lon="1.90796">
        <ele>1468.07</ele>
        <time>2015-07-22T09:14:04Z</time>
      </trkpt>
      <trkpt lat="42.48109" lon="1.90815">
        <ele>1468.55</ele>
        <time>2015-07-22T09:14:18Z</time>
      </trkpt>
      <trkpt lat="42.48112" lon="1.90829">
        <ele>1468.55</ele>
        <time>2015-07-22T09:14:34Z</time>
      </trkpt>
      <trkpt lat="42.4811" lon="1.9082">
        <ele>1468.55</ele>
        <time>2015-07-22T09:14:49Z</time>
      </trkpt>
      <trkpt lat="42.4811" lon="1.90809">
        <ele>1469.51</ele>
        <time>2015-07-22T09:14:56Z</time>
      </trkpt>
      <trkpt lat="42.48115" lon="1.90817">
        <ele>1470.47</ele>
        <time>2015-07-22T09:15:06Z</time>
      </trkpt>
      <trkpt lat="42.48121" lon="1.90823">
        <ele>1470.95</ele>
        <time>2015-07-22T09:15:13Z</time>
      </trkpt>
      <trkpt lat="42.48127" lon="1.90815">
        <ele>1473.36</ele>
        <time>2015-07-22T09:15:26Z</time>
      </trkpt>
      <trkpt lat="42.48134" lon="1.90798">
        <ele>1473.84</ele>
        <time>2015-07-22T09:15:45Z</time>
      </trkpt>
      <trkpt lat="42.48136" lon="1.90788">
        <ele>1473.84</ele>
        <time>2015-07-22T09:16:02Z</time>
      </trkpt>
      <trkpt lat="42.48137" lon="1.90782">
        <ele>1474.32</ele>
        <time>2015-07-22T09:16:08Z</time>
      </trkpt>
      <trkpt lat="42.48153" lon="1.90771">
        <ele>1474.8</ele>
        <time>2015-07-22T09:16:24Z</time>
      </trkpt>
      <trkpt lat="42.48153" lon="1.90771">
        <ele>1474.8</ele>
        <time>2015-07-22T09:16:26Z</time>
      </trkpt>
      <trkpt lat="42.48164" lon="1.90769">
        <ele>1475.28</ele>
        <time>2015-07-22T09:16:36Z</time>
      </trkpt>
      <trkpt lat="42.48174" lon="1.90765">
        <ele>1475.76</ele>
        <time>2015-07-22T09:16:49Z</time>
      </trkpt>
      <trkpt lat="42.48176" lon="1.90762">
        <ele>1476.24</ele>
        <time>2015-07-22T09:17:02Z</time>
      </trkpt>
      <trkpt lat="42.48177" lon="1.9076">
        <ele>1476.72</ele>
        <time>2015-07-22T09:17:19Z</time>
      </trkpt>
      <trkpt lat="42.48177" lon="1.9076">
        <ele>1477.2</ele>
        <time>2015-07-22T09:17:39Z</time>
      </trkpt>
      <trkpt lat="42.48177" lon="1.90761">
        <ele>1476.24</ele>
        <time>2015-07-22T09:17:58Z</time>
      </trkpt>
      <trkpt lat="42.48176" lon="1.90761">
        <ele>1476.72</ele>
        <time>2015-07-22T09:18:10Z</time>
      </trkpt>
      <trkpt lat="42.48181" lon="1.9076">
        <ele>1477.2</ele>
        <time>2015-07-22T09:18:18Z</time>
      </trkpt>
      <trkpt lat="42.48195" lon="1.90761">
        <ele>1478.16</ele>
        <time>2015-07-22T09:18:31Z</time>
      </trkpt>
      <trkpt lat="42.48203" lon="1.90765">
        <ele>1479.13</ele>
        <time>2015-07-22T09:18:40Z</time>
      </trkpt>
      <trkpt lat="42.48207" lon="1.90778">
        <ele>1481.05</ele>
        <time>2015-07-22T09:18:53Z</time>
      </trkpt>
      <trkpt lat="42.48207" lon="1.90785">
        <ele>1482.49</ele>
        <time>2015-07-22T09:19:06Z</time>
      </trkpt>
      <trkpt lat="42.48209" lon="1.90799">
        <ele>1483.45</ele>
        <time>2015-07-22T09:19:17Z</time>
      </trkpt>
      <trkpt lat="42.4821" lon="1.90804">
        <ele>1483.93</ele>
        <time>2015-07-22T09:19:23Z</time>
      </trkpt>
      <trkpt lat="42.48211" lon="1.90805">
        <ele>1483.93</ele>
        <time>2015-07-22T09:19:25Z</time>
      </trkpt>
      <trkpt lat="42.48226" lon="1.90803">
        <ele>1485.85</ele>
        <time>2015-07-22T09:19:40Z</time>
      </trkpt>
      <trkpt lat="42.48232" lon="1.90804">
        <ele>1486.82</ele>
        <time>2015-07-22T09:19:51Z</time>
      </trkpt>
      <trkpt lat="42.48244" lon="1.90803">
        <ele>1487.3</ele>
        <time>2015-07-22T09:20:04Z</time>
      </trkpt>
      <trkpt lat="42.48248" lon="1.90805">
        <ele>1488.26</ele>
        <time>2015-07-22T09:20:10Z</time>
      </trkpt>
      <trkpt lat="42.48253" lon="1.90808">
        <ele>1488.26</ele>
        <time>2015-07-22T09:20:15Z</time>
      </trkpt>
      <trkpt lat="42.48256" lon="1.90809">
        <ele>1488.74</ele>
        <time>2015-07-22T09:20:26Z</time>
      </trkpt>
      <trkpt lat="42.48267" lon="1.90813">
        <ele>1489.22</ele>
        <time>2015-07-22T09:20:38Z</time>
      </trkpt>
      <trkpt lat="42.48277" lon="1.90816">
        <ele>1489.7</ele>
        <time>2015-07-22T09:20:51Z</time>
      </trkpt>
      <trkpt lat="42.4829" lon="1.90815">
        <ele>1490.18</ele>
        <time>2015-07-22T09:21:04Z</time>
      </trkpt>
      <trkpt lat="42.48302" lon="1.9082">
        <ele>1490.18</ele>
        <time>2015-07-22T09:21:17Z</time>
      </trkpt>
      <trkpt lat="42.48309" lon="1.90835">
        <ele>1491.14</ele>
        <time>2015-07-22T09:21:30Z</time>
      </trkpt>
      <trkpt lat="42.4831" lon="1.90841">
        <ele>1491.14</ele>
        <time>2015-07-22T09:21:33Z</time>
      </trkpt>
      <trkpt lat="42.48311" lon="1.90862">
        <ele>1491.62</ele>
        <time>2015-07-22T09:21:45Z</time>
      </trkpt>
      <trkpt lat="42.48312" lon="1.90867">
        <ele>1492.1</ele>
        <time>2015-07-22T09:21:51Z</time>
      </trkpt>
      <trkpt lat="42.48312" lon="1.90878">
        <ele>1492.1</ele>
        <time>2015-07-22T09:21:59Z</time>
      </trkpt>
      <trkpt lat="42.48311" lon="1.90881">
        <ele>1492.58</ele>
        <time>2015-07-22T09:22:01Z</time>
      </trkpt>
      <trkpt lat="42.48314" lon="1.90905">
        <ele>1493.55</ele>
        <time>2015-07-22T09:22:15Z</time>
      </trkpt>
      <trkpt lat="42.48316" lon="1.90921">
        <ele>1494.51</ele>
        <time>2015-07-22T09:22:26Z</time>
      </trkpt>
      <trkpt lat="42.48318" lon="1.90935">
        <ele>1495.47</ele>
        <time>2015-07-22T09:22:33Z</time>
      </trkpt>
      <trkpt lat="42.48315" lon="1.90947">
        <ele>1496.91</ele>
        <time>2015-07-22T09:22:43Z</time>
      </trkpt>
      <trkpt lat="42.48315" lon="1.90961">
        <ele>1497.39</ele>
        <time>2015-07-22T09:22:53Z</time>
      </trkpt>
      <trkpt lat="42.48316" lon="1.90981">
        <ele>1498.83</ele>
        <time>2015-07-22T09:23:05Z</time>
      </trkpt>
      <trkpt lat="42.48318" lon="1.90994">
        <ele>1500.27</ele>
        <time>2015-07-22T09:23:15Z</time>
      </trkpt>
      <trkpt lat="42.48322" lon="1.91012">
        <ele>1503.16</ele>
        <time>2015-07-22T09:23:30Z</time>
      </trkpt>
      <trkpt lat="42.48323" lon="1.91015">
        <ele>1503.64</ele>
        <time>2015-07-22T09:23:32Z</time>
      </trkpt>
      <trkpt lat="42.48328" lon="1.91028">
        <ele>1505.56</ele>
        <time>2015-07-22T09:23:44Z</time>
      </trkpt>
      <trkpt lat="42.4833" lon="1.91032">
        <ele>1506.04</ele>
        <time>2015-07-22T09:23:48Z</time>
      </trkpt>
      <trkpt lat="42.4834" lon="1.91043">
        <ele>1506.52</ele>
        <time>2015-07-22T09:24:00Z</time>
      </trkpt>
      <trkpt lat="42.4835" lon="1.91054">
        <ele>1506.52</ele>
        <time>2015-07-22T09:24:13Z</time>
      </trkpt>
      <trkpt lat="42.48364" lon="1.91071">
        <ele>1507.48</ele>
        <time>2015-07-22T09:24:28Z</time>
      </trkpt>
      <trkpt lat="42.48373" lon="1.91084">
        <ele>1508.45</ele>
        <time>2015-07-22T09:24:41Z</time>
      </trkpt>
      <trkpt lat="42.48376" lon="1.91096">
        <ele>1509.89</ele>
        <time>2015-07-22T09:24:53Z</time>
      </trkpt>
      <trkpt lat="42.48376" lon="1.91098">
        <ele>1510.37</ele>
        <time>2015-07-22T09:24:55Z</time>
      </trkpt>
      <trkpt lat="42.48378" lon="1.91114">
        <ele>1511.81</ele>
        <time>2015-07-22T09:25:06Z</time>
      </trkpt>
      <trkpt lat="42.48385" lon="1.91121">
        <ele>1513.25</ele>
        <time>2015-07-22T09:25:20Z</time>
      </trkpt>
      <trkpt lat="42.48386" lon="1.91127">
        <ele>1514.21</ele>
        <time>2015-07-22T09:25:31Z</time>
      </trkpt>
      <trkpt lat="42.48383" lon="1.91136">
        <ele>1516.14</ele>
        <time>2015-07-22T09:25:41Z</time>
      </trkpt>
      <trkpt lat="42.48381" lon="1.91143">
        <ele>1517.58</ele>
        <time>2015-07-22T09:25:47Z</time>
      </trkpt>
      <trkpt lat="42.48377" lon="1.91157">
        <ele>1518.54</ele>
        <time>2015-07-22T09:26:00Z</time>
      </trkpt>
      <trkpt lat="42.48373" lon="1.91168">
        <ele>1519.98</ele>
        <time>2015-07-22T09:26:11Z</time>
      </trkpt>
      <trkpt lat="42.48375" lon="1.91177">
        <ele>1520.94</ele>
        <time>2015-07-22T09:26:21Z</time>
      </trkpt>
      <trkpt lat="42.48377" lon="1.91179">
        <ele>1521.42</ele>
        <time>2015-07-22T09:26:24Z</time>
      </trkpt>
      <trkpt lat="42.48384" lon="1.91193">
        <ele>1522.87</ele>
        <time>2015-07-22T09:26:36Z</time>
      </trkpt>
      <trkpt lat="42.48386" lon="1.91195">
        <ele>1523.35</ele>
        <time>2015-07-22T09:26:38Z</time>
      </trkpt>
      <trkpt lat="42.48394" lon="1.91198">
        <ele>1524.79</ele>
        <time>2015-07-22T09:26:49Z</time>
      </trkpt>
      <trkpt lat="42.48396" lon="1.91199">
        <ele>1524.79</ele>
        <time>2015-07-22T09:26:51Z</time>
      </trkpt>
      <trkpt lat="42.48399" lon="1.91201">
        <ele>1525.27</ele>
        <time>2015-07-22T09:26:56Z</time>
      </trkpt>
      <trkpt lat="42.48406" lon="1.91216">
        <ele>1525.27</ele>
        <time>2015-07-22T09:27:09Z</time>
      </trkpt>
      <trkpt lat="42.48412" lon="1.91228">
        <ele>1525.75</ele>
        <time>2015-07-22T09:27:21Z</time>
      </trkpt>
      <trkpt lat="42.48413" lon="1.9123">
        <ele>1526.71</ele>
        <time>2015-07-22T09:27:23Z</time>
      </trkpt>
      <trkpt lat="42.48416" lon="1.91238">
        <ele>1525.75</ele>
        <time>2015-07-22T09:27:30Z</time>
      </trkpt>
      <trkpt lat="42.48422" lon="1.91251">
        <ele>1525.27</ele>
        <time>2015-07-22T09:27:41Z</time>
      </trkpt>
      <trkpt lat="42.48428" lon="1.91273">
        <ele>1525.75</ele>
        <time>2015-07-22T09:27:54Z</time>
      </trkpt>
      <trkpt lat="42.48428" lon="1.91279">
        <ele>1525.75</ele>
        <time>2015-07-22T09:27:57Z</time>
      </trkpt>
      <trkpt lat="42.48427" lon="1.91295">
        <ele>1526.23</ele>
        <time>2015-07-22T09:28:08Z</time>
      </trkpt>
      <trkpt lat="42.48422" lon="1.91315">
        <ele>1526.71</ele>
        <time>2015-07-22T09:28:21Z</time>
      </trkpt>
      <trkpt lat="42.4842" lon="1.91322">
        <ele>1526.71</ele>
        <time>2015-07-22T09:28:26Z</time>
      </trkpt>
      <trkpt lat="42.48415" lon="1.91331">
        <ele>1527.19</ele>
        <time>2015-07-22T09:28:31Z</time>
      </trkpt>
      <trkpt lat="42.48409" lon="1.91339">
        <ele>1527.19</ele>
        <time>2015-07-22T09:28:41Z</time>
      </trkpt>
      <trkpt lat="42.48405" lon="1.91346">
        <ele>1527.67</ele>
        <time>2015-07-22T09:28:46Z</time>
      </trkpt>
      <trkpt lat="42.48403" lon="1.91363">
        <ele>1527.67</ele>
        <time>2015-07-22T09:28:58Z</time>
      </trkpt>
      <trkpt lat="42.48399" lon="1.91387">
        <ele>1528.15</ele>
        <time>2015-07-22T09:29:12Z</time>
      </trkpt>
      <trkpt lat="42.48398" lon="1.91396">
        <ele>1528.63</ele>
        <time>2015-07-22T09:29:21Z</time>
      </trkpt>
      <trkpt lat="42.48397" lon="1.91401">
        <ele>1528.63</ele>
        <time>2015-07-22T09:29:24Z</time>
      </trkpt>
      <trkpt lat="42.48396" lon="1.91408">
        <ele>1529.11</ele>
        <time>2015-07-22T09:29:29Z</time>
      </trkpt>
      <trkpt lat="42.48394" lon="1.91412">
        <ele>1529.11</ele>
        <time>2015-07-22T09:29:33Z</time>
      </trkpt>
      <trkpt lat="42.48393" lon="1.9142">
        <ele>1529.59</ele>
        <time>2015-07-22T09:29:38Z</time>
      </trkpt>
      <trkpt lat="42.48394" lon="1.9144">
        <ele>1530.08</ele>
        <time>2015-07-22T09:29:50Z</time>
      </trkpt>
      <trkpt lat="42.48392" lon="1.91454">
        <ele>1531.04</ele>
        <time>2015-07-22T09:30:03Z</time>
      </trkpt>
      <trkpt lat="42.48388" lon="1.91467">
        <ele>1532.96</ele>
        <time>2015-07-22T09:30:15Z</time>
      </trkpt>
      <trkpt lat="42.48384" lon="1.91479">
        <ele>1534.4</ele>
        <time>2015-07-22T09:30:27Z</time>
      </trkpt>
      <trkpt lat="42.48384" lon="1.91496">
        <ele>1536.32</ele>
        <time>2015-07-22T09:30:39Z</time>
      </trkpt>
      <trkpt lat="42.48382" lon="1.91508">
        <ele>1538.25</ele>
        <time>2015-07-22T09:30:50Z</time>
      </trkpt>
      <trkpt lat="42.48382" lon="1.91508">
        <ele>1538.73</ele>
        <time>2015-07-22T09:30:51Z</time>
      </trkpt>
      <trkpt lat="42.48378" lon="1.9152">
        <ele>1540.65</ele>
        <time>2015-07-22T09:31:04Z</time>
      </trkpt>
      <trkpt lat="42.48376" lon="1.91529">
        <ele>1542.57</ele>
        <time>2015-07-22T09:31:15Z</time>
      </trkpt>
      <trkpt lat="42.48376" lon="1.91537">
        <ele>1544.5</ele>
        <time>2015-07-22T09:31:26Z</time>
      </trkpt>
      <trkpt lat="42.48376" lon="1.91549">
        <ele>1545.94</ele>
        <time>2015-07-22T09:31:40Z</time>
      </trkpt>
      <trkpt lat="42.48378" lon="1.91555">
        <ele>1548.34</ele>
        <time>2015-07-22T09:31:54Z</time>
      </trkpt>
      <trkpt lat="42.48379" lon="1.91564">
        <ele>1550.74</ele>
        <time>2015-07-22T09:32:09Z</time>
      </trkpt>
      <trkpt lat="42.48381" lon="1.91581">
        <ele>1553.15</ele>
        <time>2015-07-22T09:32:22Z</time>
      </trkpt>
      <trkpt lat="42.48383" lon="1.91582">
        <ele>1553.63</ele>
        <time>2015-07-22T09:32:45Z</time>
      </trkpt>
      <trkpt lat="42.48383" lon="1.91582">
        <ele>1554.11</ele>
        <time>2015-07-22T09:33:10Z</time>
      </trkpt>
      <trkpt lat="42.48384" lon="1.91582">
        <ele>1555.07</ele>
        <time>2015-07-22T09:33:35Z</time>
      </trkpt>
      <trkpt lat="42.48387" lon="1.91595">
        <ele>1557.47</ele>
        <time>2015-07-22T09:33:48Z</time>
      </trkpt>
      <trkpt lat="42.48387" lon="1.91597">
        <ele>1557.95</ele>
        <time>2015-07-22T09:33:51Z</time>
      </trkpt>
      <trkpt lat="42.48389" lon="1.91606">
        <ele>1559.88</ele>
        <time>2015-07-22T09:34:00Z</time>
      </trkpt>
      <trkpt lat="42.48387" lon="1.91611">
        <ele>1561.32</ele>
        <time>2015-07-22T09:34:08Z</time>
      </trkpt>
      <trkpt lat="42.48389" lon="1.91619">
        <ele>1563.24</ele>
        <time>2015-07-22T09:34:21Z</time>
      </trkpt>
      <trkpt lat="42.48393" lon="1.91628">
        <ele>1566.12</ele>
        <time>2015-07-22T09:34:34Z</time>
      </trkpt>
      <trkpt lat="42.48396" lon="1.91636">
        <ele>1569.49</ele>
        <time>2015-07-22T09:34:48Z</time>
      </trkpt>
      <trkpt lat="42.48402" lon="1.91645">
        <ele>1571.89</ele>
        <time>2015-07-22T09:35:03Z</time>
      </trkpt>
      <trkpt lat="42.48406" lon="1.91653">
        <ele>1574.3</ele>
        <time>2015-07-22T09:35:14Z</time>
      </trkpt>
      <trkpt lat="42.48408" lon="1.91662">
        <ele>1576.7</ele>
        <time>2015-07-22T09:35:24Z</time>
      </trkpt>
      <trkpt lat="42.48408" lon="1.91671">
        <ele>1578.14</ele>
        <time>2015-07-22T09:35:35Z</time>
      </trkpt>
      <trkpt lat="42.48407" lon="1.9168">
        <ele>1580.06</ele>
        <time>2015-07-22T09:35:46Z</time>
      </trkpt>
      <trkpt lat="42.48407" lon="1.91689">
        <ele>1581.03</ele>
        <time>2015-07-22T09:36:00Z</time>
      </trkpt>
      <trkpt lat="42.48408" lon="1.91695">
        <ele>1581.99</ele>
        <time>2015-07-22T09:36:16Z</time>
      </trkpt>
      <trkpt lat="42.48409" lon="1.91704">
        <ele>1583.91</ele>
        <time>2015-07-22T09:36:28Z</time>
      </trkpt>
      <trkpt lat="42.4841" lon="1.91713">
        <ele>1586.79</ele>
        <time>2015-07-22T09:36:43Z</time>
      </trkpt>
      <trkpt lat="42.48409" lon="1.9172">
        <ele>1588.72</ele>
        <time>2015-07-22T09:36:56Z</time>
      </trkpt>
      <trkpt lat="42.48409" lon="1.91723">
        <ele>1589.2</ele>
        <time>2015-07-22T09:37:02Z</time>
      </trkpt>
      <trkpt lat="42.48411" lon="1.91726">
        <ele>1590.16</ele>
        <time>2015-07-22T09:37:07Z</time>
      </trkpt>
      <trkpt lat="42.48415" lon="1.91736">
        <ele>1592.08</ele>
        <time>2015-07-22T09:37:20Z</time>
      </trkpt>
      <trkpt lat="42.48417" lon="1.91739">
        <ele>1592.08</ele>
        <time>2015-07-22T09:37:37Z</time>
      </trkpt>
      <trkpt lat="42.48416" lon="1.91746">
        <ele>1594.48</ele>
        <time>2015-07-22T09:37:59Z</time>
      </trkpt>
      <trkpt lat="42.48414" lon="1.9175">
        <ele>1594.96</ele>
        <time>2015-07-22T09:38:10Z</time>
      </trkpt>
      <trkpt lat="42.48415" lon="1.9176">
        <ele>1595.45</ele>
        <time>2015-07-22T09:38:22Z</time>
      </trkpt>
      <trkpt lat="42.48412" lon="1.91769">
        <ele>1597.37</ele>
        <time>2015-07-22T09:38:33Z</time>
      </trkpt>
      <trkpt lat="42.4841" lon="1.91779">
        <ele>1599.77</ele>
        <time>2015-07-22T09:38:45Z</time>
      </trkpt>
      <trkpt lat="42.48411" lon="1.91788">
        <ele>1601.69</ele>
        <time>2015-07-22T09:38:57Z</time>
      </trkpt>
      <trkpt lat="42.48411" lon="1.91796">
        <ele>1603.62</ele>
        <time>2015-07-22T09:39:07Z</time>
      </trkpt>
      <trkpt lat="42.48411" lon="1.91801">
        <ele>1604.1</ele>
        <time>2015-07-22T09:39:11Z</time>
      </trkpt>
      <trkpt lat="42.48407" lon="1.91805">
        <ele>1606.5</ele>
        <time>2015-07-22T09:39:22Z</time>
      </trkpt>
      <trkpt lat="42.48405" lon="1.91814">
        <ele>1607.94</ele>
        <time>2015-07-22T09:39:33Z</time>
      </trkpt>
      <trkpt lat="42.48408" lon="1.91822">
        <ele>1609.86</ele>
        <time>2015-07-22T09:39:44Z</time>
      </trkpt>
      <trkpt lat="42.48413" lon="1.91835">
        <ele>1611.31</ele>
        <time>2015-07-22T09:39:54Z</time>
      </trkpt>
      <trkpt lat="42.48414" lon="1.91839">
        <ele>1611.79</ele>
        <time>2015-07-22T09:39:58Z</time>
      </trkpt>
      <trkpt lat="42.48419" lon="1.91852">
        <ele>1612.75</ele>
        <time>2015-07-22T09:40:11Z</time>
      </trkpt>
      <trkpt lat="42.48424" lon="1.91862">
        <ele>1613.71</ele>
        <time>2015-07-22T09:40:23Z</time>
      </trkpt>
      <trkpt lat="42.48425" lon="1.91863">
        <ele>1613.23</ele>
        <time>2015-07-22T09:40:26Z</time>
      </trkpt>
      <trkpt lat="42.48435" lon="1.91871">
        <ele>1615.63</ele>
        <time>2015-07-22T09:40:39Z</time>
      </trkpt>
      <trkpt lat="42.48444" lon="1.91876">
        <ele>1617.56</ele>
        <time>2015-07-22T09:40:51Z</time>
      </trkpt>
      <trkpt lat="42.48446" lon="1.91877">
        <ele>1618.04</ele>
        <time>2015-07-22T09:40:54Z</time>
      </trkpt>
      <trkpt lat="42.48452" lon="1.91878">
        <ele>1619.48</ele>
        <time>2015-07-22T09:41:02Z</time>
      </trkpt>
      <trkpt lat="42.48459" lon="1.91885">
        <ele>1621.88</ele>
        <time>2015-07-22T09:41:17Z</time>
      </trkpt>
      <trkpt lat="42.48459" lon="1.91889">
        <ele>1622.84</ele>
        <time>2015-07-22T09:41:22Z</time>
      </trkpt>
      <trkpt lat="42.48456" lon="1.919">
        <ele>1624.77</ele>
        <time>2015-07-22T09:41:33Z</time>
      </trkpt>
      <trkpt lat="42.48451" lon="1.91913">
        <ele>1626.21</ele>
        <time>2015-07-22T09:41:45Z</time>
      </trkpt>
      <trkpt lat="42.48452" lon="1.91918">
        <ele>1627.17</ele>
        <time>2015-07-22T09:41:52Z</time>
      </trkpt>
      <trkpt lat="42.48458" lon="1.9192">
        <ele>1629.57</ele>
        <time>2015-07-22T09:42:03Z</time>
      </trkpt>
      <trkpt lat="42.48465" lon="1.91928">
        <ele>1631.49</ele>
        <time>2015-07-22T09:42:16Z</time>
      </trkpt>
      <trkpt lat="42.48469" lon="1.91928">
        <ele>1632.46</ele>
        <time>2015-07-22T09:42:22Z</time>
      </trkpt>
      <trkpt lat="42.48473" lon="1.91927">
        <ele>1632.94</ele>
        <time>2015-07-22T09:42:26Z</time>
      </trkpt>
      <trkpt lat="42.48478" lon="1.91933">
        <ele>1634.38</ele>
        <time>2015-07-22T09:42:38Z</time>
      </trkpt>
      <trkpt lat="42.48479" lon="1.91933">
        <ele>1634.86</ele>
        <time>2015-07-22T09:42:53Z</time>
      </trkpt>
      <trkpt lat="42.4848" lon="1.91937">
        <ele>1635.34</ele>
        <time>2015-07-22T09:43:02Z</time>
      </trkpt>
      <trkpt lat="42.48482" lon="1.91937">
        <ele>1635.82</ele>
        <time>2015-07-22T09:43:13Z</time>
      </trkpt>
      <trkpt lat="42.48493" lon="1.91935">
        <ele>1636.3</ele>
        <time>2015-07-22T09:43:27Z</time>
      </trkpt>
      <trkpt lat="42.48495" lon="1.91935">
        <ele>1636.3</ele>
        <time>2015-07-22T09:43:29Z</time>
      </trkpt>
      <trkpt lat="42.48501" lon="1.91931">
        <ele>1637.26</ele>
        <time>2015-07-22T09:43:36Z</time>
      </trkpt>
      <trkpt lat="42.48506" lon="1.91925">
        <ele>1637.74</ele>
        <time>2015-07-22T09:43:47Z</time>
      </trkpt>
      <trkpt lat="42.48516" lon="1.91919">
        <ele>1638.22</ele>
        <time>2015-07-22T09:43:58Z</time>
      </trkpt>
      <trkpt lat="42.48528" lon="1.91911">
        <ele>1639.19</ele>
        <time>2015-07-22T09:44:10Z</time>
      </trkpt>
      <trkpt lat="42.4854" lon="1.9191">
        <ele>1640.15</ele>
        <time>2015-07-22T09:44:21Z</time>
      </trkpt>
      <trkpt lat="42.48543" lon="1.91917">
        <ele>1640.15</ele>
        <time>2015-07-22T09:44:27Z</time>
      </trkpt>
      <trkpt lat="42.48547" lon="1.91935">
        <ele>1639.67</ele>
        <time>2015-07-22T09:44:39Z</time>
      </trkpt>
      <trkpt lat="42.48551" lon="1.91947">
        <ele>1639.67</ele>
        <time>2015-07-22T09:44:51Z</time>
      </trkpt>
      <trkpt lat="42.48548" lon="1.91954">
        <ele>1639.67</ele>
        <time>2015-07-22T09:45:02Z</time>
      </trkpt>
      <trkpt lat="42.48548" lon="1.91958">
        <ele>1639.67</ele>
        <time>2015-07-22T09:45:09Z</time>
      </trkpt>
      <trkpt lat="42.48549" lon="1.9196">
        <ele>1639.67</ele>
        <time>2015-07-22T09:45:11Z</time>
      </trkpt>
      <trkpt lat="42.48549" lon="1.91966">
        <ele>1639.67</ele>
        <time>2015-07-22T09:45:15Z</time>
      </trkpt>
      <trkpt lat="42.4855" lon="1.91971">
        <ele>1639.67</ele>
        <time>2015-07-22T09:45:19Z</time>
      </trkpt>
      <trkpt lat="42.48554" lon="1.91988">
        <ele>1640.15</ele>
        <time>2015-07-22T09:45:31Z</time>
      </trkpt>
      <trkpt lat="42.48551" lon="1.9199">
        <ele>1640.15</ele>
        <time>2015-07-22T09:45:37Z</time>
      </trkpt>
      <trkpt lat="42.4855" lon="1.9199">
        <ele>1640.63</ele>
        <time>2015-07-22T09:45:39Z</time>
      </trkpt>
      <trkpt lat="42.48542" lon="1.91998">
        <ele>1642.07</ele>
        <time>2015-07-22T09:45:51Z</time>
      </trkpt>
      <trkpt lat="42.48538" lon="1.91998">
        <ele>1642.55</ele>
        <time>2015-07-22T09:45:55Z</time>
      </trkpt>
      <trkpt lat="42.48526" lon="1.91997">
        <ele>1643.51</ele>
        <time>2015-07-22T09:46:07Z</time>
      </trkpt>
      <trkpt lat="42.48514" lon="1.91999">
        <ele>1643.99</ele>
        <time>2015-07-22T09:46:18Z</time>
      </trkpt>
      <trkpt lat="42.48504" lon="1.92005">
        <ele>1646.4</ele>
        <time>2015-07-22T09:46:32Z</time>
      </trkpt>
      <trkpt lat="42.48502" lon="1.92006">
        <ele>1646.88</ele>
        <time>2015-07-22T09:46:35Z</time>
      </trkpt>
      <trkpt lat="42.48497" lon="1.92004">
        <ele>1646.88</ele>
        <time>2015-07-22T09:46:40Z</time>
      </trkpt>
      <trkpt lat="42.48477" lon="1.92001">
        <ele>1646.4</ele>
        <time>2015-07-22T09:46:54Z</time>
      </trkpt>
      <trkpt lat="42.48468" lon="1.92002">
        <ele>1646.88</ele>
        <time>2015-07-22T09:47:05Z</time>
      </trkpt>
      <trkpt lat="42.48455" lon="1.91999">
        <ele>1648.32</ele>
        <time>2015-07-22T09:47:17Z</time>
      </trkpt>
      <trkpt lat="42.48449" lon="1.91998">
        <ele>1648.8</ele>
        <time>2015-07-22T09:47:28Z</time>
      </trkpt>
      <trkpt lat="42.48445" lon="1.91999">
        <ele>1648.8</ele>
        <time>2015-07-22T09:47:52Z</time>
      </trkpt>
      <trkpt lat="42.48442" lon="1.91998">
        <ele>1649.28</ele>
        <time>2015-07-22T09:47:56Z</time>
      </trkpt>
      <trkpt lat="42.4843" lon="1.92004">
        <ele>1650.24</ele>
        <time>2015-07-22T09:48:09Z</time>
      </trkpt>
      <trkpt lat="42.48419" lon="1.92008">
        <ele>1652.64</ele>
        <time>2015-07-22T09:48:22Z</time>
      </trkpt>
      <trkpt lat="42.48414" lon="1.92011">
        <ele>1653.6</ele>
        <time>2015-07-22T09:48:29Z</time>
      </trkpt>
      <trkpt lat="42.4841" lon="1.9202">
        <ele>1656.01</ele>
        <time>2015-07-22T09:48:41Z</time>
      </trkpt>
      <trkpt lat="42.48409" lon="1.92026">
        <ele>1657.93</ele>
        <time>2015-07-22T09:48:51Z</time>
      </trkpt>
      <trkpt lat="42.4841" lon="1.92035">
        <ele>1660.33</ele>
        <time>2015-07-22T09:49:02Z</time>
      </trkpt>
      <trkpt lat="42.4841" lon="1.92036">
        <ele>1660.33</ele>
        <time>2015-07-22T09:49:03Z</time>
      </trkpt>
      <trkpt lat="42.4841" lon="1.9204">
        <ele>1660.33</ele>
        <time>2015-07-22T09:49:18Z</time>
      </trkpt>
      <trkpt lat="42.48407" lon="1.92043">
        <ele>1660.81</ele>
        <time>2015-07-22T09:49:33Z</time>
      </trkpt>
      <trkpt lat="42.48397" lon="1.92049">
        <ele>1663.22</ele>
        <time>2015-07-22T09:49:47Z</time>
      </trkpt>
      <trkpt lat="42.48387" lon="1.92052">
        <ele>1665.62</ele>
        <time>2015-07-22T09:50:00Z</time>
      </trkpt>
      <trkpt lat="42.48378" lon="1.92053">
        <ele>1667.06</ele>
        <time>2015-07-22T09:50:12Z</time>
      </trkpt>
      <trkpt lat="42.48368" lon="1.92054">
        <ele>1669.47</ele>
        <time>2015-07-22T09:50:25Z</time>
      </trkpt>
      <trkpt lat="42.48364" lon="1.92054">
        <ele>1671.39</ele>
        <time>2015-07-22T09:50:36Z</time>
      </trkpt>
      <trkpt lat="42.48362" lon="1.92058">
        <ele>1672.35</ele>
        <time>2015-07-22T09:50:42Z</time>
      </trkpt>
      <trkpt lat="42.48355" lon="1.92064">
        <ele>1674.75</ele>
        <time>2015-07-22T09:50:53Z</time>
      </trkpt>
      <trkpt lat="42.48349" lon="1.92071">
        <ele>1676.68</ele>
        <time>2015-07-22T09:51:03Z</time>
      </trkpt>
      <trkpt lat="42.48348" lon="1.92072">
        <ele>1676.68</ele>
        <time>2015-07-22T09:51:04Z</time>
      </trkpt>
      <trkpt lat="42.48341" lon="1.92079">
        <ele>1679.08</ele>
        <time>2015-07-22T09:51:17Z</time>
      </trkpt>
      <trkpt lat="42.48332" lon="1.92088">
        <ele>1681</ele>
        <time>2015-07-22T09:51:31Z</time>
      </trkpt>
      <trkpt lat="42.48331" lon="1.92089">
        <ele>1681.48</ele>
        <time>2015-07-22T09:51:33Z</time>
      </trkpt>
      <trkpt lat="42.48322" lon="1.92098">
        <ele>1683.41</ele>
        <time>2015-07-22T09:51:45Z</time>
      </trkpt>
      <trkpt lat="42.48319" lon="1.92102">
        <ele>1683.89</ele>
        <time>2015-07-22T09:51:50Z</time>
      </trkpt>
      <trkpt lat="42.48315" lon="1.92113">
        <ele>1686.29</ele>
        <time>2015-07-22T09:52:02Z</time>
      </trkpt>
      <trkpt lat="42.48313" lon="1.92123">
        <ele>1688.69</ele>
        <time>2015-07-22T09:52:13Z</time>
      </trkpt>
      <trkpt lat="42.48311" lon="1.92132">
        <ele>1690.62</ele>
        <time>2015-07-22T09:52:22Z</time>
      </trkpt>
      <trkpt lat="42.48311" lon="1.92144">
        <ele>1692.54</ele>
        <time>2015-07-22T09:52:34Z</time>
      </trkpt>
      <trkpt lat="42.48312" lon="1.92158">
        <ele>1695.42</ele>
        <time>2015-07-22T09:52:47Z</time>
      </trkpt>
      <trkpt lat="42.48315" lon="1.92174">
        <ele>1697.83</ele>
        <time>2015-07-22T09:53:02Z</time>
      </trkpt>
      <trkpt lat="42.48318" lon="1.92187">
        <ele>1699.27</ele>
        <time>2015-07-22T09:53:13Z</time>
      </trkpt>
      <trkpt lat="42.48319" lon="1.92203">
        <ele>1700.71</ele>
        <time>2015-07-22T09:53:24Z</time>
      </trkpt>
      <trkpt lat="42.4832" lon="1.92217">
        <ele>1700.71</ele>
        <time>2015-07-22T09:53:33Z</time>
      </trkpt>
      <trkpt lat="42.48318" lon="1.92226">
        <ele>1700.71</ele>
        <time>2015-07-22T09:53:39Z</time>
      </trkpt>
      <trkpt lat="42.48312" lon="1.92242">
        <ele>1699.27</ele>
        <time>2015-07-22T09:53:51Z</time>
      </trkpt>
      <trkpt lat="42.48304" lon="1.92252">
        <ele>1697.83</ele>
        <time>2015-07-22T09:54:04Z</time>
      </trkpt>
      <trkpt lat="42.48304" lon="1.92252">
        <ele>1697.83</ele>
        <time>2015-07-22T09:54:06Z</time>
      </trkpt>
      <trkpt lat="42.48299" lon="1.92254">
        <ele>1696.86</ele>
        <time>2015-07-22T09:54:19Z</time>
      </trkpt>
      <trkpt lat="42.48296" lon="1.92256">
        <ele>1696.86</ele>
        <time>2015-07-22T09:54:23Z</time>
      </trkpt>
      <trkpt lat="42.48285" lon="1.92256">
        <ele>1695.42</ele>
        <time>2015-07-22T09:54:37Z</time>
      </trkpt>
      <trkpt lat="42.4828" lon="1.92254">
        <ele>1694.94</ele>
        <time>2015-07-22T09:54:42Z</time>
      </trkpt>
      <trkpt lat="42.48275" lon="1.92252">
        <ele>1694.46</ele>
        <time>2015-07-22T09:54:48Z</time>
      </trkpt>
      <trkpt lat="42.48264" lon="1.92254">
        <ele>1693.98</ele>
        <time>2015-07-22T09:54:58Z</time>
      </trkpt>
      <trkpt lat="42.48247" lon="1.92262">
        <ele>1692.06</ele>
        <time>2015-07-22T09:55:14Z</time>
      </trkpt>
      <trkpt lat="42.48244" lon="1.92265">
        <ele>1692.06</ele>
        <time>2015-07-22T09:55:17Z</time>
      </trkpt>
      <trkpt lat="42.48234" lon="1.92277">
        <ele>1691.1</ele>
        <time>2015-07-22T09:55:30Z</time>
      </trkpt>
      <trkpt lat="42.48229" lon="1.92281">
        <ele>1690.14</ele>
        <time>2015-07-22T09:55:35Z</time>
      </trkpt>
      <trkpt lat="42.48211" lon="1.92288">
        <ele>1688.21</ele>
        <time>2015-07-22T09:55:50Z</time>
      </trkpt>
      <trkpt lat="42.48205" lon="1.92292">
        <ele>1687.73</ele>
        <time>2015-07-22T09:55:55Z</time>
      </trkpt>
      <trkpt lat="42.48197" lon="1.92295">
        <ele>1687.25</ele>
        <time>2015-07-22T09:56:01Z</time>
      </trkpt>
      <trkpt lat="42.48181" lon="1.92306">
        <ele>1687.25</ele>
        <time>2015-07-22T09:56:15Z</time>
      </trkpt>
      <trkpt lat="42.48165" lon="1.92314">
        <ele>1687.73</ele>
        <time>2015-07-22T09:56:30Z</time>
      </trkpt>
      <trkpt lat="42.48147" lon="1.92324">
        <ele>1687.73</ele>
        <time>2015-07-22T09:56:46Z</time>
      </trkpt>
      <trkpt lat="42.4813" lon="1.92333">
        <ele>1688.21</ele>
        <time>2015-07-22T09:57:02Z</time>
      </trkpt>
      <trkpt lat="42.48117" lon="1.92344">
        <ele>1689.17</ele>
        <time>2015-07-22T09:57:15Z</time>
      </trkpt>
      <trkpt lat="42.48112" lon="1.92349">
        <ele>1690.14</ele>
        <time>2015-07-22T09:57:21Z</time>
      </trkpt>
      <trkpt lat="42.4811" lon="1.9235">
        <ele>1690.62</ele>
        <time>2015-07-22T09:57:23Z</time>
      </trkpt>
      <trkpt lat="42.48101" lon="1.92365">
        <ele>1691.1</ele>
        <time>2015-07-22T09:57:36Z</time>
      </trkpt>
      <trkpt lat="42.481" lon="1.92369">
        <ele>1691.1</ele>
        <time>2015-07-22T09:57:40Z</time>
      </trkpt>
      <trkpt lat="42.48094" lon="1.92379">
        <ele>1690.62</ele>
        <time>2015-07-22T09:57:48Z</time>
      </trkpt>
      <trkpt lat="42.48077" lon="1.92393">
        <ele>1690.14</ele>
        <time>2015-07-22T09:58:04Z</time>
      </trkpt>
      <trkpt lat="42.4806" lon="1.92407">
        <ele>1688.69</ele>
        <time>2015-07-22T09:58:20Z</time>
      </trkpt>
      <trkpt lat="42.48045" lon="1.92424">
        <ele>1687.73</ele>
        <time>2015-07-22T09:58:35Z</time>
      </trkpt>
      <trkpt lat="42.4804" lon="1.92426">
        <ele>1687.25</ele>
        <time>2015-07-22T09:58:39Z</time>
      </trkpt>
      <trkpt lat="42.48036" lon="1.92433">
        <ele>1687.25</ele>
        <time>2015-07-22T09:58:44Z</time>
      </trkpt>
      <trkpt lat="42.48019" lon="1.92452">
        <ele>1687.25</ele>
        <time>2015-07-22T09:59:01Z</time>
      </trkpt>
      <trkpt lat="42.48007" lon="1.92469">
        <ele>1686.77</ele>
        <time>2015-07-22T09:59:15Z</time>
      </trkpt>
      <trkpt lat="42.47997" lon="1.92483">
        <ele>1686.29</ele>
        <time>2015-07-22T09:59:28Z</time>
      </trkpt>
      <trkpt lat="42.47983" lon="1.92502">
        <ele>1686.77</ele>
        <time>2015-07-22T09:59:43Z</time>
      </trkpt>
      <trkpt lat="42.4798" lon="1.92507">
        <ele>1687.25</ele>
        <time>2015-07-22T09:59:49Z</time>
      </trkpt>
      <trkpt lat="42.47979" lon="1.92509">
        <ele>1687.73</ele>
        <time>2015-07-22T09:59:51Z</time>
      </trkpt>
      <trkpt lat="42.47974" lon="1.92519">
        <ele>1688.21</ele>
        <time>2015-07-22T09:59:58Z</time>
      </trkpt>
      <trkpt lat="42.4797" lon="1.92522">
        <ele>1688.69</ele>
        <time>2015-07-22T10:00:02Z</time>
      </trkpt>
      <trkpt lat="42.47968" lon="1.92523">
        <ele>1688.69</ele>
        <time>2015-07-22T10:00:04Z</time>
      </trkpt>
      <trkpt lat="42.47966" lon="1.92534">
        <ele>1688.69</ele>
        <time>2015-07-22T10:00:12Z</time>
      </trkpt>
      <trkpt lat="42.4796" lon="1.92538">
        <ele>1687.73</ele>
        <time>2015-07-22T10:00:26Z</time>
      </trkpt>
      <trkpt lat="42.47956" lon="1.92544">
        <ele>1687.25</ele>
        <time>2015-07-22T10:00:32Z</time>
      </trkpt>
      <trkpt lat="42.47955" lon="1.92547">
        <ele>1686.77</ele>
        <time>2015-07-22T10:00:34Z</time>
      </trkpt>
      <trkpt lat="42.47954" lon="1.92548">
        <ele>1686.29</ele>
        <time>2015-07-22T10:00:36Z</time>
      </trkpt>
      <trkpt lat="42.47948" lon="1.92559">
        <ele>1684.85</ele>
        <time>2015-07-22T10:00:45Z</time>
      </trkpt>
      <trkpt lat="42.47947" lon="1.92577">
        <ele>1684.37</ele>
        <time>2015-07-22T10:00:58Z</time>
      </trkpt>
      <trkpt lat="42.47936" lon="1.92589">
        <ele>1683.89</ele>
        <time>2015-07-22T10:01:10Z</time>
      </trkpt>
      <trkpt lat="42.4793" lon="1.92598">
        <ele>1683.89</ele>
        <time>2015-07-22T10:01:21Z</time>
      </trkpt>
      <trkpt lat="42.47931" lon="1.92598">
        <ele>1683.41</ele>
        <time>2015-07-22T10:01:36Z</time>
      </trkpt>
      <trkpt lat="42.47933" lon="1.92598">
        <ele>1683.89</ele>
        <time>2015-07-22T10:01:47Z</time>
      </trkpt>
      <trkpt lat="42.47934" lon="1.92599">
        <ele>1683.41</ele>
        <time>2015-07-22T10:01:57Z</time>
      </trkpt>
      <trkpt lat="42.47934" lon="1.92599">
        <ele>1682.93</ele>
        <time>2015-07-22T10:02:29Z</time>
      </trkpt>
      <trkpt lat="42.47934" lon="1.92599">
        <ele>1682.93</ele>
        <time>2015-07-22T10:03:07Z</time>
      </trkpt>
      <trkpt lat="42.47934" lon="1.92599">
        <ele>1682.93</ele>
        <time>2015-07-22T10:03:37Z</time>
      </trkpt>
      <trkpt lat="42.47934" lon="1.92599">
        <ele>1682.93</ele>
        <time>2015-07-22T10:04:10Z</time>
      </trkpt>
      <trkpt lat="42.47934" lon="1.92599">
        <ele>1683.89</ele>
        <time>2015-07-22T10:04:35Z</time>
      </trkpt>
      <trkpt lat="42.47934" lon="1.92599">
        <ele>1683.89</ele>
        <time>2015-07-22T10:05:01Z</time>
      </trkpt>
      <trkpt lat="42.47934" lon="1.92599">
        <ele>1684.85</ele>
        <time>2015-07-22T10:05:27Z</time>
      </trkpt>
      <trkpt lat="42.47934" lon="1.92598">
        <ele>1682.93</ele>
        <time>2015-07-22T10:05:42Z</time>
      </trkpt>
      <trkpt lat="42.47935" lon="1.926">
        <ele>1681</ele>
        <time>2015-07-22T10:26:23Z</time>
      </trkpt>
      <trkpt lat="42.47935" lon="1.926">
        <ele>1681.48</ele>
        <time>2015-07-22T10:26:24Z</time>
      </trkpt>
      <trkpt lat="42.47932" lon="1.92598">
        <ele>1681.48</ele>
        <time>2015-07-22T10:26:46Z</time>
      </trkpt>
      <trkpt lat="42.47933" lon="1.926">
        <ele>1681.48</ele>
        <time>2015-07-22T10:27:11Z</time>
      </trkpt>
      <trkpt lat="42.47933" lon="1.92602">
        <ele>1681.96</ele>
        <time>2015-07-22T10:27:28Z</time>
      </trkpt>
      <trkpt lat="42.47933" lon="1.926">
        <ele>1681.48</ele>
        <time>2015-07-22T10:27:43Z</time>
      </trkpt>
      <trkpt lat="42.47933" lon="1.926">
        <ele>1681.48</ele>
        <time>2015-07-22T10:28:03Z</time>
      </trkpt>
      <trkpt lat="42.47932" lon="1.926">
        <ele>1681</ele>
        <time>2015-07-22T10:28:24Z</time>
      </trkpt>
      <trkpt lat="42.4793" lon="1.92604">
        <ele>1680.04</ele>
        <time>2015-07-22T10:28:35Z</time>
      </trkpt>
      <trkpt lat="42.47927" lon="1.92608">
        <ele>1679.08</ele>
        <time>2015-07-22T10:28:43Z</time>
      </trkpt>
      <trkpt lat="42.47922" lon="1.9261">
        <ele>1676.68</ele>
        <time>2015-07-22T10:28:51Z</time>
      </trkpt>
      <trkpt lat="42.47916" lon="1.92613">
        <ele>1676.68</ele>
        <time>2015-07-22T10:28:56Z</time>
      </trkpt>
      <trkpt lat="42.47915" lon="1.92616">
        <ele>1676.2</ele>
        <time>2015-07-22T10:28:59Z</time>
      </trkpt>
      <trkpt lat="42.47918" lon="1.92625">
        <ele>1677.64</ele>
        <time>2015-07-22T10:29:11Z</time>
      </trkpt>
      <trkpt lat="42.47918" lon="1.92627">
        <ele>1677.64</ele>
        <time>2015-07-22T10:29:22Z</time>
      </trkpt>
      <trkpt lat="42.47922" lon="1.92631">
        <ele>1678.12</ele>
        <time>2015-07-22T10:29:34Z</time>
      </trkpt>
      <trkpt lat="42.47925" lon="1.92634">
        <ele>1678.12</ele>
        <time>2015-07-22T10:29:40Z</time>
      </trkpt>
      <trkpt lat="42.47933" lon="1.92636">
        <ele>1679.08</ele>
        <time>2015-07-22T10:29:52Z</time>
      </trkpt>
      <trkpt lat="42.47933" lon="1.9263">
        <ele>1680.04</ele>
        <time>2015-07-22T10:30:04Z</time>
      </trkpt>
      <trkpt lat="42.47933" lon="1.9263">
        <ele>1680.04</ele>
        <time>2015-07-22T10:30:24Z</time>
      </trkpt>
      <trkpt lat="42.47934" lon="1.92631">
        <ele>1680.04</ele>
        <time>2015-07-22T10:30:40Z</time>
      </trkpt>
      <trkpt lat="42.47934" lon="1.92631">
        <ele>1680.04</ele>
        <time>2015-07-22T10:30:57Z</time>
      </trkpt>
      <trkpt lat="42.47933" lon="1.92631">
        <ele>1680.04</ele>
        <time>2015-07-22T10:31:16Z</time>
      </trkpt>
      <trkpt lat="42.47934" lon="1.92631">
        <ele>1680.04</ele>
        <time>2015-07-22T10:31:32Z</time>
      </trkpt>
      <trkpt lat="42.47934" lon="1.9263">
        <ele>1680.04</ele>
        <time>2015-07-22T10:31:59Z</time>
      </trkpt>
      <trkpt lat="42.47931" lon="1.92629">
        <ele>1680.04</ele>
        <time>2015-07-22T10:32:06Z</time>
      </trkpt>
      <trkpt lat="42.47931" lon="1.92618">
        <ele>1681.96</ele>
        <time>2015-07-22T10:32:19Z</time>
      </trkpt>
      <trkpt lat="42.47932" lon="1.92616">
        <ele>1681.96</ele>
        <time>2015-07-22T10:32:36Z</time>
      </trkpt>
      <trkpt lat="42.47935" lon="1.92612">
        <ele>1681.96</ele>
        <time>2015-07-22T10:32:57Z</time>
      </trkpt>
      <trkpt lat="42.4793" lon="1.9262">
        <ele>1681</ele>
        <time>2015-07-22T10:33:12Z</time>
      </trkpt>
      <trkpt lat="42.47935" lon="1.92628">
        <ele>1680.52</ele>
        <time>2015-07-22T10:33:27Z</time>
      </trkpt>
      <trkpt lat="42.47936" lon="1.92629">
        <ele>1680.04</ele>
        <time>2015-07-22T10:33:44Z</time>
      </trkpt>
      <trkpt lat="42.47937" lon="1.9263">
        <ele>1680.04</ele>
        <time>2015-07-22T10:33:54Z</time>
      </trkpt>
      <trkpt lat="42.47945" lon="1.92626">
        <ele>1681.96</ele>
        <time>2015-07-22T10:34:08Z</time>
      </trkpt>
      <trkpt lat="42.47947" lon="1.92619">
        <ele>1683.41</ele>
        <time>2015-07-22T10:34:16Z</time>
      </trkpt>
      <trkpt lat="42.47944" lon="1.92608">
        <ele>1685.33</ele>
        <time>2015-07-22T10:34:28Z</time>
      </trkpt>
      <trkpt lat="42.47943" lon="1.92604">
        <ele>1685.33</ele>
        <time>2015-07-22T10:34:32Z</time>
      </trkpt>
      <trkpt lat="42.47943" lon="1.92594">
        <ele>1683.41</ele>
        <time>2015-07-22T10:34:40Z</time>
      </trkpt>
      <trkpt lat="42.47947" lon="1.92577">
        <ele>1682.44</ele>
        <time>2015-07-22T10:34:52Z</time>
      </trkpt>
      <trkpt lat="42.47945" lon="1.92566">
        <ele>1682.44</ele>
        <time>2015-07-22T10:35:01Z</time>
      </trkpt>
      <trkpt lat="42.47944" lon="1.92559">
        <ele>1682.44</ele>
        <time>2015-07-22T10:35:06Z</time>
      </trkpt>
      <trkpt lat="42.4795" lon="1.92536">
        <ele>1683.41</ele>
        <time>2015-07-22T10:35:20Z</time>
      </trkpt>
      <trkpt lat="42.47955" lon="1.92517">
        <ele>1684.37</ele>
        <time>2015-07-22T10:35:33Z</time>
      </trkpt>
      <trkpt lat="42.47957" lon="1.92511">
        <ele>1684.85</ele>
        <time>2015-07-22T10:35:37Z</time>
      </trkpt>
      <trkpt lat="42.47961" lon="1.92502">
        <ele>1684.85</ele>
        <time>2015-07-22T10:35:43Z</time>
      </trkpt>
      <trkpt lat="42.47964" lon="1.92494">
        <ele>1684.85</ele>
        <time>2015-07-22T10:35:49Z</time>
      </trkpt>
      <trkpt lat="42.47971" lon="1.92487">
        <ele>1684.85</ele>
        <time>2015-07-22T10:35:56Z</time>
      </trkpt>
      <trkpt lat="42.47985" lon="1.92475">
        <ele>1684.85</ele>
        <time>2015-07-22T10:36:11Z</time>
      </trkpt>
      <trkpt lat="42.48002" lon="1.92461">
        <ele>1684.37</ele>
        <time>2015-07-22T10:36:26Z</time>
      </trkpt>
      <trkpt lat="42.48018" lon="1.9245">
        <ele>1684.37</ele>
        <time>2015-07-22T10:36:41Z</time>
      </trkpt>
      <trkpt lat="42.48033" lon="1.92435">
        <ele>1684.37</ele>
        <time>2015-07-22T10:36:55Z</time>
      </trkpt>
      <trkpt lat="42.48047" lon="1.92419">
        <ele>1685.33</ele>
        <time>2015-07-22T10:37:10Z</time>
      </trkpt>
      <trkpt lat="42.48061" lon="1.92406">
        <ele>1686.29</ele>
        <time>2015-07-22T10:37:23Z</time>
      </trkpt>
      <trkpt lat="42.48074" lon="1.92394">
        <ele>1686.77</ele>
        <time>2015-07-22T10:37:35Z</time>
      </trkpt>
      <trkpt lat="42.48094" lon="1.92378">
        <ele>1687.73</ele>
        <time>2015-07-22T10:37:54Z</time>
      </trkpt>
      <trkpt lat="42.48104" lon="1.92354">
        <ele>1688.21</ele>
        <time>2015-07-22T10:38:10Z</time>
      </trkpt>
      <trkpt lat="42.48112" lon="1.92348">
        <ele>1687.25</ele>
        <time>2015-07-22T10:38:17Z</time>
      </trkpt>
      <trkpt lat="42.48115" lon="1.92344">
        <ele>1686.77</ele>
        <time>2015-07-22T10:38:21Z</time>
      </trkpt>
      <trkpt lat="42.48131" lon="1.92333">
        <ele>1685.33</ele>
        <time>2015-07-22T10:38:35Z</time>
      </trkpt>
      <trkpt lat="42.48149" lon="1.92321">
        <ele>1684.85</ele>
        <time>2015-07-22T10:38:50Z</time>
      </trkpt>
      <trkpt lat="42.48165" lon="1.92313">
        <ele>1684.37</ele>
        <time>2015-07-22T10:39:04Z</time>
      </trkpt>
      <trkpt lat="42.48174" lon="1.92308">
        <ele>1684.37</ele>
        <time>2015-07-22T10:39:13Z</time>
      </trkpt>
      <trkpt lat="42.4819" lon="1.92298">
        <ele>1683.89</ele>
        <time>2015-07-22T10:39:27Z</time>
      </trkpt>
      <trkpt lat="42.48205" lon="1.92289">
        <ele>1684.37</ele>
        <time>2015-07-22T10:39:40Z</time>
      </trkpt>
      <trkpt lat="42.48211" lon="1.92287">
        <ele>1685.33</ele>
        <time>2015-07-22T10:39:45Z</time>
      </trkpt>
      <trkpt lat="42.48217" lon="1.92284">
        <ele>1685.81</ele>
        <time>2015-07-22T10:39:50Z</time>
      </trkpt>
      <trkpt lat="42.48219" lon="1.92283">
        <ele>1686.29</ele>
        <time>2015-07-22T10:39:52Z</time>
      </trkpt>
      <trkpt lat="42.48239" lon="1.92268">
        <ele>1688.69</ele>
        <time>2015-07-22T10:40:10Z</time>
      </trkpt>
      <trkpt lat="42.48249" lon="1.9226">
        <ele>1689.17</ele>
        <time>2015-07-22T10:40:22Z</time>
      </trkpt>
      <trkpt lat="42.48255" lon="1.92257">
        <ele>1689.17</ele>
        <time>2015-07-22T10:40:28Z</time>
      </trkpt>
      <trkpt lat="42.48264" lon="1.92253">
        <ele>1690.14</ele>
        <time>2015-07-22T10:40:41Z</time>
      </trkpt>
      <trkpt lat="42.48273" lon="1.92252">
        <ele>1690.62</ele>
        <time>2015-07-22T10:40:48Z</time>
      </trkpt>
      <trkpt lat="42.48287" lon="1.92257">
        <ele>1692.54</ele>
        <time>2015-07-22T10:41:00Z</time>
      </trkpt>
      <trkpt lat="42.483" lon="1.92252">
        <ele>1693.98</ele>
        <time>2015-07-22T10:41:13Z</time>
      </trkpt>
      <trkpt lat="42.48306" lon="1.92245">
        <ele>1695.42</ele>
        <time>2015-07-22T10:41:25Z</time>
      </trkpt>
      <trkpt lat="42.48308" lon="1.9224">
        <ele>1695.9</ele>
        <time>2015-07-22T10:41:36Z</time>
      </trkpt>
      <trkpt lat="42.48313" lon="1.9223">
        <ele>1696.86</ele>
        <time>2015-07-22T10:41:45Z</time>
      </trkpt>
      <trkpt lat="42.48315" lon="1.92221">
        <ele>1697.83</ele>
        <time>2015-07-22T10:41:52Z</time>
      </trkpt>
      <trkpt lat="42.48316" lon="1.92212">
        <ele>1697.83</ele>
        <time>2015-07-22T10:41:58Z</time>
      </trkpt>
      <trkpt lat="42.48315" lon="1.9219">
        <ele>1696.38</ele>
        <time>2015-07-22T10:42:13Z</time>
      </trkpt>
      <trkpt lat="42.48315" lon="1.92188">
        <ele>1696.38</ele>
        <time>2015-07-22T10:42:15Z</time>
      </trkpt>
      <trkpt lat="42.48312" lon="1.92176">
        <ele>1694.46</ele>
        <time>2015-07-22T10:42:24Z</time>
      </trkpt>
      <trkpt lat="42.4831" lon="1.92172">
        <ele>1693.98</ele>
        <time>2015-07-22T10:42:28Z</time>
      </trkpt>
      <trkpt lat="42.48309" lon="1.92164">
        <ele>1692.54</ele>
        <time>2015-07-22T10:42:34Z</time>
      </trkpt>
      <trkpt lat="42.48308" lon="1.92151">
        <ele>1689.65</ele>
        <time>2015-07-22T10:42:45Z</time>
      </trkpt>
      <trkpt lat="42.48307" lon="1.92134">
        <ele>1687.25</ele>
        <time>2015-07-22T10:42:56Z</time>
      </trkpt>
      <trkpt lat="42.48309" lon="1.92117">
        <ele>1683.41</ele>
        <time>2015-07-22T10:43:09Z</time>
      </trkpt>
      <trkpt lat="42.48311" lon="1.92113">
        <ele>1682.93</ele>
        <time>2015-07-22T10:43:12Z</time>
      </trkpt>
      <trkpt lat="42.48314" lon="1.92107">
        <ele>1681.96</ele>
        <time>2015-07-22T10:43:17Z</time>
      </trkpt>
      <trkpt lat="42.48317" lon="1.92099">
        <ele>1680.04</ele>
        <time>2015-07-22T10:43:25Z</time>
      </trkpt>
      <trkpt lat="42.48321" lon="1.92095">
        <ele>1679.56</ele>
        <time>2015-07-22T10:43:30Z</time>
      </trkpt>
      <trkpt lat="42.48323" lon="1.92092">
        <ele>1679.08</ele>
        <time>2015-07-22T10:43:33Z</time>
      </trkpt>
      <trkpt lat="42.48332" lon="1.92083">
        <ele>1676.68</ele>
        <time>2015-07-22T10:43:43Z</time>
      </trkpt>
      <trkpt lat="42.48334" lon="1.92083">
        <ele>1676.2</ele>
        <time>2015-07-22T10:43:46Z</time>
      </trkpt>
      <trkpt lat="42.48344" lon="1.9207">
        <ele>1673.31</ele>
        <time>2015-07-22T10:44:00Z</time>
      </trkpt>
      <trkpt lat="42.48352" lon="1.92062">
        <ele>1670.43</ele>
        <time>2015-07-22T10:44:12Z</time>
      </trkpt>
      <trkpt lat="42.4836" lon="1.92055">
        <ele>1667.06</ele>
        <time>2015-07-22T10:44:26Z</time>
      </trkpt>
      <trkpt lat="42.48369" lon="1.92052">
        <ele>1665.14</ele>
        <time>2015-07-22T10:44:38Z</time>
      </trkpt>
      <trkpt lat="42.48377" lon="1.9205">
        <ele>1663.7</ele>
        <time>2015-07-22T10:44:47Z</time>
      </trkpt>
      <trkpt lat="42.48387" lon="1.92048">
        <ele>1661.3</ele>
        <time>2015-07-22T10:44:57Z</time>
      </trkpt>
      <trkpt lat="42.48398" lon="1.92045">
        <ele>1658.89</ele>
        <time>2015-07-22T10:45:09Z</time>
      </trkpt>
      <trkpt lat="42.48405" lon="1.92039">
        <ele>1656.97</ele>
        <time>2015-07-22T10:45:21Z</time>
      </trkpt>
      <trkpt lat="42.48406" lon="1.92034">
        <ele>1656.01</ele>
        <time>2015-07-22T10:45:36Z</time>
      </trkpt>
      <trkpt lat="42.48406" lon="1.92028">
        <ele>1654.57</ele>
        <time>2015-07-22T10:45:47Z</time>
      </trkpt>
      <trkpt lat="42.48407" lon="1.92023">
        <ele>1653.12</ele>
        <time>2015-07-22T10:45:54Z</time>
      </trkpt>
      <trkpt lat="42.48408" lon="1.92018">
        <ele>1651.2</ele>
        <time>2015-07-22T10:46:05Z</time>
      </trkpt>
      <trkpt lat="42.48411" lon="1.92014">
        <ele>1650.24</ele>
        <time>2015-07-22T10:46:09Z</time>
      </trkpt>
      <trkpt lat="42.48423" lon="1.92009">
        <ele>1647.84</ele>
        <time>2015-07-22T10:46:21Z</time>
      </trkpt>
      <trkpt lat="42.48426" lon="1.92004">
        <ele>1647.36</ele>
        <time>2015-07-22T10:46:27Z</time>
      </trkpt>
      <trkpt lat="42.48427" lon="1.91996">
        <ele>1645.43</ele>
        <time>2015-07-22T10:46:40Z</time>
      </trkpt>
      <trkpt lat="42.48428" lon="1.9199">
        <ele>1643.03</ele>
        <time>2015-07-22T10:46:53Z</time>
      </trkpt>
      <trkpt lat="42.48428" lon="1.91985">
        <ele>1641.11</ele>
        <time>2015-07-22T10:47:05Z</time>
      </trkpt>
      <trkpt lat="42.48429" lon="1.91979">
        <ele>1639.19</ele>
        <time>2015-07-22T10:47:14Z</time>
      </trkpt>
      <trkpt lat="42.48434" lon="1.91974">
        <ele>1637.26</ele>
        <time>2015-07-22T10:47:25Z</time>
      </trkpt>
      <trkpt lat="42.48445" lon="1.91967">
        <ele>1635.34</ele>
        <time>2015-07-22T10:47:38Z</time>
      </trkpt>
      <trkpt lat="42.48458" lon="1.91955">
        <ele>1633.9</ele>
        <time>2015-07-22T10:47:51Z</time>
      </trkpt>
      <trkpt lat="42.48472" lon="1.91944">
        <ele>1632.94</ele>
        <time>2015-07-22T10:48:03Z</time>
      </trkpt>
      <trkpt lat="42.48475" lon="1.91942">
        <ele>1632.46</ele>
        <time>2015-07-22T10:48:08Z</time>
      </trkpt>
      <trkpt lat="42.48478" lon="1.91934">
        <ele>1631.01</ele>
        <time>2015-07-22T10:48:20Z</time>
      </trkpt>
      <trkpt lat="42.48477" lon="1.91929">
        <ele>1629.09</ele>
        <time>2015-07-22T10:48:32Z</time>
      </trkpt>
      <trkpt lat="42.48471" lon="1.91929">
        <ele>1627.65</ele>
        <time>2015-07-22T10:48:41Z</time>
      </trkpt>
      <trkpt lat="42.48468" lon="1.91928">
        <ele>1627.17</ele>
        <time>2015-07-22T10:48:44Z</time>
      </trkpt>
      <trkpt lat="42.4846" lon="1.9192">
        <ele>1625.73</ele>
        <time>2015-07-22T10:48:56Z</time>
      </trkpt>
      <trkpt lat="42.48454" lon="1.91919">
        <ele>1623.32</ele>
        <time>2015-07-22T10:49:05Z</time>
      </trkpt>
      <trkpt lat="42.48453" lon="1.91916">
        <ele>1622.84</ele>
        <time>2015-07-22T10:49:08Z</time>
      </trkpt>
      <trkpt lat="42.48451" lon="1.91906">
        <ele>1621.88</ele>
        <time>2015-07-22T10:49:15Z</time>
      </trkpt>
      <trkpt lat="42.48457" lon="1.91892">
        <ele>1619.48</ele>
        <time>2015-07-22T10:49:27Z</time>
      </trkpt>
      <trkpt lat="42.48457" lon="1.91884">
        <ele>1616.59</ele>
        <time>2015-07-22T10:49:38Z</time>
      </trkpt>
      <trkpt lat="42.48456" lon="1.91879">
        <ele>1615.63</ele>
        <time>2015-07-22T10:49:46Z</time>
      </trkpt>
      <trkpt lat="42.48446" lon="1.91877">
        <ele>1613.23</ele>
        <time>2015-07-22T10:49:58Z</time>
      </trkpt>
      <trkpt lat="42.4844" lon="1.91874">
        <ele>1611.31</ele>
        <time>2015-07-22T10:50:08Z</time>
      </trkpt>
      <trkpt lat="42.48428" lon="1.91867">
        <ele>1608.9</ele>
        <time>2015-07-22T10:50:22Z</time>
      </trkpt>
      <trkpt lat="42.48424" lon="1.91862">
        <ele>1608.42</ele>
        <time>2015-07-22T10:50:29Z</time>
      </trkpt>
      <trkpt lat="42.48419" lon="1.91858">
        <ele>1607.94</ele>
        <time>2015-07-22T10:50:33Z</time>
      </trkpt>
      <trkpt lat="42.48415" lon="1.91842">
        <ele>1606.5</ele>
        <time>2015-07-22T10:50:45Z</time>
      </trkpt>
      <trkpt lat="42.48409" lon="1.91831">
        <ele>1604.58</ele>
        <time>2015-07-22T10:50:56Z</time>
      </trkpt>
      <trkpt lat="42.48402" lon="1.91813">
        <ele>1602.66</ele>
        <time>2015-07-22T10:51:08Z</time>
      </trkpt>
      <trkpt lat="42.48406" lon="1.91808">
        <ele>1600.73</ele>
        <time>2015-07-22T10:51:21Z</time>
      </trkpt>
      <trkpt lat="42.48408" lon="1.918">
        <ele>1598.33</ele>
        <time>2015-07-22T10:51:33Z</time>
      </trkpt>
      <trkpt lat="42.48406" lon="1.91796">
        <ele>1596.41</ele>
        <time>2015-07-22T10:51:45Z</time>
      </trkpt>
      <trkpt lat="42.4841" lon="1.91785">
        <ele>1594</ele>
        <time>2015-07-22T10:52:00Z</time>
      </trkpt>
      <trkpt lat="42.48409" lon="1.91774">
        <ele>1592.08</ele>
        <time>2015-07-22T10:52:14Z</time>
      </trkpt>
      <trkpt lat="42.48411" lon="1.91762">
        <ele>1590.64</ele>
        <time>2015-07-22T10:52:27Z</time>
      </trkpt>
      <trkpt lat="42.48412" lon="1.91751">
        <ele>1588.24</ele>
        <time>2015-07-22T10:52:40Z</time>
      </trkpt>
      <trkpt lat="42.48412" lon="1.91741">
        <ele>1586.31</ele>
        <time>2015-07-22T10:52:51Z</time>
      </trkpt>
      <trkpt lat="42.48409" lon="1.91736">
        <ele>1585.35</ele>
        <time>2015-07-22T10:53:03Z</time>
      </trkpt>
      <trkpt lat="42.48408" lon="1.91731">
        <ele>1583.91</ele>
        <time>2015-07-22T10:53:13Z</time>
      </trkpt>
      <trkpt lat="42.48407" lon="1.91727">
        <ele>1582.47</ele>
        <time>2015-07-22T10:53:26Z</time>
      </trkpt>
      <trkpt lat="42.48408" lon="1.91716">
        <ele>1580.54</ele>
        <time>2015-07-22T10:53:40Z</time>
      </trkpt>
      <trkpt lat="42.48409" lon="1.91711">
        <ele>1579.58</ele>
        <time>2015-07-22T10:53:56Z</time>
      </trkpt>
      <trkpt lat="42.48409" lon="1.9171">
        <ele>1578.14</ele>
        <time>2015-07-22T10:54:13Z</time>
      </trkpt>
      <trkpt lat="42.48405" lon="1.91696">
        <ele>1575.74</ele>
        <time>2015-07-22T10:54:28Z</time>
      </trkpt>
      <trkpt lat="42.48412" lon="1.91684">
        <ele>1573.82</ele>
        <time>2015-07-22T10:54:42Z</time>
      </trkpt>
      <trkpt lat="42.48413" lon="1.91676">
        <ele>1570.93</ele>
        <time>2015-07-22T10:54:59Z</time>
      </trkpt>
      <trkpt lat="42.48413" lon="1.91662">
        <ele>1568.53</ele>
        <time>2015-07-22T10:55:15Z</time>
      </trkpt>
      <trkpt lat="42.4841" lon="1.91654">
        <ele>1566.12</ele>
        <time>2015-07-22T10:55:29Z</time>
      </trkpt>
      <trkpt lat="42.48408" lon="1.91649">
        <ele>1564.68</ele>
        <time>2015-07-22T10:55:38Z</time>
      </trkpt>
      <trkpt lat="42.48403" lon="1.91641">
        <ele>1562.28</ele>
        <time>2015-07-22T10:55:51Z</time>
      </trkpt>
      <trkpt lat="42.48401" lon="1.9164">
        <ele>1561.8</ele>
        <time>2015-07-22T10:55:54Z</time>
      </trkpt>
      <trkpt lat="42.48396" lon="1.91635">
        <ele>1560.36</ele>
        <time>2015-07-22T10:56:01Z</time>
      </trkpt>
      <trkpt lat="42.48394" lon="1.91627">
        <ele>1558.43</ele>
        <time>2015-07-22T10:56:11Z</time>
      </trkpt>
      <trkpt lat="42.48393" lon="1.91616">
        <ele>1556.51</ele>
        <time>2015-07-22T10:56:23Z</time>
      </trkpt>
      <trkpt lat="42.48394" lon="1.91608">
        <ele>1554.11</ele>
        <time>2015-07-22T10:56:34Z</time>
      </trkpt>
      <trkpt lat="42.48391" lon="1.91602">
        <ele>1552.67</ele>
        <time>2015-07-22T10:56:45Z</time>
      </trkpt>
      <trkpt lat="42.4839" lon="1.91596">
        <ele>1550.74</ele>
        <time>2015-07-22T10:56:57Z</time>
      </trkpt>
      <trkpt lat="42.48392" lon="1.91584">
        <ele>1548.82</ele>
        <time>2015-07-22T10:57:13Z</time>
      </trkpt>
      <trkpt lat="42.48398" lon="1.91574">
        <ele>1547.38</ele>
        <time>2015-07-22T10:57:25Z</time>
      </trkpt>
      <trkpt lat="42.48394" lon="1.91572">
        <ele>1547.38</ele>
        <time>2015-07-22T10:57:42Z</time>
      </trkpt>
      <trkpt lat="42.48391" lon="1.91572">
        <ele>1547.38</ele>
        <time>2015-07-22T10:58:02Z</time>
      </trkpt>
      <trkpt lat="42.48387" lon="1.91565">
        <ele>1546.9</ele>
        <time>2015-07-22T10:58:24Z</time>
      </trkpt>
      <trkpt lat="42.48385" lon="1.91557">
        <ele>1545.94</ele>
        <time>2015-07-22T10:58:34Z</time>
      </trkpt>
      <trkpt lat="42.4838" lon="1.91548">
        <ele>1544.01</ele>
        <time>2015-07-22T10:58:46Z</time>
      </trkpt>
      <trkpt lat="42.4838" lon="1.9154">
        <ele>1543.05</ele>
        <time>2015-07-22T10:58:57Z</time>
      </trkpt>
      <trkpt lat="42.48381" lon="1.91525">
        <ele>1540.65</ele>
        <time>2015-07-22T10:59:12Z</time>
      </trkpt>
      <trkpt lat="42.48378" lon="1.91509">
        <ele>1538.25</ele>
        <time>2015-07-22T10:59:23Z</time>
      </trkpt>
      <trkpt lat="42.48381" lon="1.91495">
        <ele>1536.8</ele>
        <time>2015-07-22T10:59:33Z</time>
      </trkpt>
      <trkpt lat="42.48386" lon="1.91479">
        <ele>1535.84</ele>
        <time>2015-07-22T10:59:47Z</time>
      </trkpt>
      <trkpt lat="42.48387" lon="1.91467">
        <ele>1534.88</ele>
        <time>2015-07-22T10:59:59Z</time>
      </trkpt>
      <trkpt lat="42.48387" lon="1.91449">
        <ele>1534.4</ele>
        <time>2015-07-22T11:00:12Z</time>
      </trkpt>
      <trkpt lat="42.48384" lon="1.9144">
        <ele>1534.4</ele>
        <time>2015-07-22T11:00:20Z</time>
      </trkpt>
      <trkpt lat="42.4838" lon="1.91415">
        <ele>1533.92</ele>
        <time>2015-07-22T11:00:34Z</time>
      </trkpt>
      <trkpt lat="42.48381" lon="1.9141">
        <ele>1533.92</ele>
        <time>2015-07-22T11:00:37Z</time>
      </trkpt>
      <trkpt lat="42.48392" lon="1.91385">
        <ele>1533.92</ele>
        <time>2015-07-22T11:00:51Z</time>
      </trkpt>
      <trkpt lat="42.48396" lon="1.91369">
        <ele>1532.48</ele>
        <time>2015-07-22T11:01:04Z</time>
      </trkpt>
      <trkpt lat="42.48397" lon="1.91367">
        <ele>1532.96</ele>
        <time>2015-07-22T11:01:38Z</time>
      </trkpt>
      <trkpt lat="42.48398" lon="1.91365">
        <ele>1532.96</ele>
        <time>2015-07-22T11:02:13Z</time>
      </trkpt>
      <trkpt lat="42.484" lon="1.91357">
        <ele>1533.92</ele>
        <time>2015-07-22T11:02:46Z</time>
      </trkpt>
      <trkpt lat="42.48401" lon="1.91349">
        <ele>1533.92</ele>
        <time>2015-07-22T11:02:53Z</time>
      </trkpt>
      <trkpt lat="42.48403" lon="1.91344">
        <ele>1533.44</ele>
        <time>2015-07-22T11:02:56Z</time>
      </trkpt>
      <trkpt lat="42.48404" lon="1.91341">
        <ele>1533.44</ele>
        <time>2015-07-22T11:02:58Z</time>
      </trkpt>
      <trkpt lat="42.48407" lon="1.91334">
        <ele>1533.44</ele>
        <time>2015-07-22T11:03:11Z</time>
      </trkpt>
      <trkpt lat="42.48411" lon="1.91328">
        <ele>1532.96</ele>
        <time>2015-07-22T11:03:23Z</time>
      </trkpt>
      <trkpt lat="42.48416" lon="1.91321">
        <ele>1532.48</ele>
        <time>2015-07-22T11:03:34Z</time>
      </trkpt>
      <trkpt lat="42.48418" lon="1.91313">
        <ele>1532.48</ele>
        <time>2015-07-22T11:03:45Z</time>
      </trkpt>
      <trkpt lat="42.4842" lon="1.91304">
        <ele>1532.48</ele>
        <time>2015-07-22T11:03:57Z</time>
      </trkpt>
      <trkpt lat="42.48419" lon="1.91288">
        <ele>1532</ele>
        <time>2015-07-22T11:04:10Z</time>
      </trkpt>
      <trkpt lat="42.48419" lon="1.91287">
        <ele>1532</ele>
        <time>2015-07-22T11:04:12Z</time>
      </trkpt>
      <trkpt lat="42.48417" lon="1.91284">
        <ele>1532</ele>
        <time>2015-07-22T11:04:18Z</time>
      </trkpt>
      <trkpt lat="42.48411" lon="1.91273">
        <ele>1532</ele>
        <time>2015-07-22T11:04:26Z</time>
      </trkpt>
      <trkpt lat="42.4841" lon="1.91264">
        <ele>1532.48</ele>
        <time>2015-07-22T11:04:30Z</time>
      </trkpt>
      <trkpt lat="42.48409" lon="1.91257">
        <ele>1532.48</ele>
        <time>2015-07-22T11:04:33Z</time>
      </trkpt>
      <trkpt lat="42.48406" lon="1.91254">
        <ele>1532</ele>
        <time>2015-07-22T11:04:36Z</time>
      </trkpt>
      <trkpt lat="42.48405" lon="1.91221">
        <ele>1532</ele>
        <time>2015-07-22T11:04:44Z</time>
      </trkpt>
      <trkpt lat="42.48403" lon="1.91211">
        <ele>1532</ele>
        <time>2015-07-22T11:04:48Z</time>
      </trkpt>
      <trkpt lat="42.48393" lon="1.91188">
        <ele>1531.52</ele>
        <time>2015-07-22T11:05:01Z</time>
      </trkpt>
      <trkpt lat="42.4839" lon="1.91186">
        <ele>1530.56</ele>
        <time>2015-07-22T11:05:07Z</time>
      </trkpt>
      <trkpt lat="42.48386" lon="1.91184">
        <ele>1530.08</ele>
        <time>2015-07-22T11:05:11Z</time>
      </trkpt>
      <trkpt lat="42.48383" lon="1.91178">
        <ele>1529.11</ele>
        <time>2015-07-22T11:05:24Z</time>
      </trkpt>
      <trkpt lat="42.48385" lon="1.91172">
        <ele>1528.63</ele>
        <time>2015-07-22T11:05:35Z</time>
      </trkpt>
      <trkpt lat="42.48381" lon="1.91163">
        <ele>1526.23</ele>
        <time>2015-07-22T11:05:47Z</time>
      </trkpt>
      <trkpt lat="42.48381" lon="1.91154">
        <ele>1524.79</ele>
        <time>2015-07-22T11:05:59Z</time>
      </trkpt>
      <trkpt lat="42.48382" lon="1.91146">
        <ele>1523.35</ele>
        <time>2015-07-22T11:06:08Z</time>
      </trkpt>
      <trkpt lat="42.48386" lon="1.91135">
        <ele>1521.42</ele>
        <time>2015-07-22T11:06:20Z</time>
      </trkpt>
      <trkpt lat="42.48388" lon="1.91126">
        <ele>1519.98</ele>
        <time>2015-07-22T11:06:31Z</time>
      </trkpt>
      <trkpt lat="42.48392" lon="1.91114">
        <ele>1519.02</ele>
        <time>2015-07-22T11:06:42Z</time>
      </trkpt>
      <trkpt lat="42.48389" lon="1.91107">
        <ele>1516.62</ele>
        <time>2015-07-22T11:06:54Z</time>
      </trkpt>
      <trkpt lat="42.48388" lon="1.91106">
        <ele>1516.62</ele>
        <time>2015-07-22T11:06:55Z</time>
      </trkpt>
      <trkpt lat="42.48381" lon="1.91093">
        <ele>1515.66</ele>
        <time>2015-07-22T11:07:06Z</time>
      </trkpt>
      <trkpt lat="42.48377" lon="1.91086">
        <ele>1516.14</ele>
        <time>2015-07-22T11:07:13Z</time>
      </trkpt>
      <trkpt lat="42.48369" lon="1.91075">
        <ele>1515.18</ele>
        <time>2015-07-22T11:07:21Z</time>
      </trkpt>
      <trkpt lat="42.48355" lon="1.91058">
        <ele>1514.69</ele>
        <time>2015-07-22T11:07:36Z</time>
      </trkpt>
      <trkpt lat="42.48338" lon="1.91051">
        <ele>1514.69</ele>
        <time>2015-07-22T11:07:49Z</time>
      </trkpt>
      <trkpt lat="42.48333" lon="1.91045">
        <ele>1514.69</ele>
        <time>2015-07-22T11:08:14Z</time>
      </trkpt>
      <trkpt lat="42.4833" lon="1.9104">
        <ele>1514.21</ele>
        <time>2015-07-22T11:08:20Z</time>
      </trkpt>
      <trkpt lat="42.48329" lon="1.91035">
        <ele>1513.73</ele>
        <time>2015-07-22T11:08:25Z</time>
      </trkpt>
      <trkpt lat="42.48327" lon="1.91032">
        <ele>1513.73</ele>
        <time>2015-07-22T11:08:28Z</time>
      </trkpt>
      <trkpt lat="42.48323" lon="1.91019">
        <ele>1511.33</ele>
        <time>2015-07-22T11:08:40Z</time>
      </trkpt>
      <trkpt lat="42.48322" lon="1.91012">
        <ele>1509.89</ele>
        <time>2015-07-22T11:08:46Z</time>
      </trkpt>
      <trkpt lat="42.48323" lon="1.91002">
        <ele>1508.45</ele>
        <time>2015-07-22T11:08:52Z</time>
      </trkpt>
      <trkpt lat="42.48318" lon="1.90992">
        <ele>1507.48</ele>
        <time>2015-07-22T11:09:00Z</time>
      </trkpt>
      <trkpt lat="42.48317" lon="1.90991">
        <ele>1507.48</ele>
        <time>2015-07-22T11:09:02Z</time>
      </trkpt>
      <trkpt lat="42.48316" lon="1.9097">
        <ele>1506.04</ele>
        <time>2015-07-22T11:09:16Z</time>
      </trkpt>
      <trkpt lat="42.48313" lon="1.90953">
        <ele>1504.6</ele>
        <time>2015-07-22T11:09:29Z</time>
      </trkpt>
      <trkpt lat="42.48314" lon="1.90933">
        <ele>1503.16</ele>
        <time>2015-07-22T11:09:41Z</time>
      </trkpt>
      <trkpt lat="42.48312" lon="1.9091">
        <ele>1502.68</ele>
        <time>2015-07-22T11:09:54Z</time>
      </trkpt>
      <trkpt lat="42.48311" lon="1.90905">
        <ele>1502.2</ele>
        <time>2015-07-22T11:09:58Z</time>
      </trkpt>
      <trkpt lat="42.4831" lon="1.90885">
        <ele>1501.24</ele>
        <time>2015-07-22T11:10:11Z</time>
      </trkpt>
      <trkpt lat="42.4831" lon="1.90864">
        <ele>1500.76</ele>
        <time>2015-07-22T11:10:24Z</time>
      </trkpt>
      <trkpt lat="42.48311" lon="1.90847">
        <ele>1500.76</ele>
        <time>2015-07-22T11:10:33Z</time>
      </trkpt>
      <trkpt lat="42.48306" lon="1.90832">
        <ele>1500.27</ele>
        <time>2015-07-22T11:10:47Z</time>
      </trkpt>
      <trkpt lat="42.4829" lon="1.90827">
        <ele>1499.79</ele>
        <time>2015-07-22T11:11:01Z</time>
      </trkpt>
      <trkpt lat="42.48277" lon="1.90821">
        <ele>1499.31</ele>
        <time>2015-07-22T11:11:12Z</time>
      </trkpt>
      <trkpt lat="42.48268" lon="1.90818">
        <ele>1498.83</ele>
        <time>2015-07-22T11:11:19Z</time>
      </trkpt>
      <trkpt lat="42.48258" lon="1.9081">
        <ele>1498.83</ele>
        <time>2015-07-22T11:11:27Z</time>
      </trkpt>
      <trkpt lat="42.4824" lon="1.90804">
        <ele>1497.39</ele>
        <time>2015-07-22T11:11:40Z</time>
      </trkpt>
      <trkpt lat="42.48235" lon="1.90804">
        <ele>1496.43</ele>
        <time>2015-07-22T11:11:45Z</time>
      </trkpt>
      <trkpt lat="42.48223" lon="1.9081">
        <ele>1494.99</ele>
        <time>2015-07-22T11:11:58Z</time>
      </trkpt>
      <trkpt lat="42.48219" lon="1.9081">
        <ele>1494.51</ele>
        <time>2015-07-22T11:12:03Z</time>
      </trkpt>
      <trkpt lat="42.4821" lon="1.90796">
        <ele>1494.03</ele>
        <time>2015-07-22T11:12:17Z</time>
      </trkpt>
      <trkpt lat="42.48209" lon="1.90794">
        <ele>1493.06</ele>
        <time>2015-07-22T11:12:19Z</time>
      </trkpt>
      <trkpt lat="42.48205" lon="1.90778">
        <ele>1490.66</ele>
        <time>2015-07-22T11:12:33Z</time>
      </trkpt>
      <trkpt lat="42.48202" lon="1.90772">
        <ele>1489.22</ele>
        <time>2015-07-22T11:12:40Z</time>
      </trkpt>
      <trkpt lat="42.48198" lon="1.90768">
        <ele>1488.74</ele>
        <time>2015-07-22T11:12:48Z</time>
      </trkpt>
      <trkpt lat="42.48189" lon="1.90769">
        <ele>1488.26</ele>
        <time>2015-07-22T11:12:59Z</time>
      </trkpt>
      <trkpt lat="42.48186" lon="1.90767">
        <ele>1487.78</ele>
        <time>2015-07-22T11:13:15Z</time>
      </trkpt>
      <trkpt lat="42.4818" lon="1.90766">
        <ele>1488.26</ele>
        <time>2015-07-22T11:13:26Z</time>
      </trkpt>
      <trkpt lat="42.48177" lon="1.90766">
        <ele>1487.3</ele>
        <time>2015-07-22T11:13:31Z</time>
      </trkpt>
      <trkpt lat="42.48167" lon="1.9077">
        <ele>1486.34</ele>
        <time>2015-07-22T11:13:44Z</time>
      </trkpt>
      <trkpt lat="42.48166" lon="1.90769">
        <ele>1486.34</ele>
        <time>2015-07-22T11:13:52Z</time>
      </trkpt>
      <trkpt lat="42.48152" lon="1.90774">
        <ele>1485.85</ele>
        <time>2015-07-22T11:14:04Z</time>
      </trkpt>
      <trkpt lat="42.48138" lon="1.90788">
        <ele>1485.37</ele>
        <time>2015-07-22T11:14:18Z</time>
      </trkpt>
      <trkpt lat="42.48138" lon="1.90789">
        <ele>1485.37</ele>
        <time>2015-07-22T11:14:19Z</time>
      </trkpt>
      <trkpt lat="42.48138" lon="1.90798">
        <ele>1484.89</ele>
        <time>2015-07-22T11:14:24Z</time>
      </trkpt>
      <trkpt lat="42.48131" lon="1.90817">
        <ele>1483.93</ele>
        <time>2015-07-22T11:14:37Z</time>
      </trkpt>
      <trkpt lat="42.48127" lon="1.90822">
        <ele>1482.97</ele>
        <time>2015-07-22T11:14:44Z</time>
      </trkpt>
      <trkpt lat="42.48122" lon="1.90824">
        <ele>1482.49</ele>
        <time>2015-07-22T11:14:49Z</time>
      </trkpt>
      <trkpt lat="42.48115" lon="1.90812">
        <ele>1480.57</ele>
        <time>2015-07-22T11:15:03Z</time>
      </trkpt>
      <trkpt lat="42.48107" lon="1.90794">
        <ele>1479.61</ele>
        <time>2015-07-22T11:15:16Z</time>
      </trkpt>
      <trkpt lat="42.48107" lon="1.90792">
        <ele>1479.13</ele>
        <time>2015-07-22T11:15:32Z</time>
      </trkpt>
      <trkpt lat="42.48109" lon="1.90791">
        <ele>1479.13</ele>
        <time>2015-07-22T11:15:45Z</time>
      </trkpt>
      <trkpt lat="42.48108" lon="1.9079">
        <ele>1479.61</ele>
        <time>2015-07-22T11:16:08Z</time>
      </trkpt>
    </trkseg>
  </trk>
</gpx>